GIA67 WIHH-WIPP
Flight info
| Callsign | GIA67 |
|---|---|
| Flight time | 0h 56m |
| Altitude | 30000 |
| Route | GOMEL T10 ENSAV |
| Aircraft | CRJX/M-SDFGIRWY/S |
Departure
| Time | 2026-04-28 09:43 |
|---|---|
| Airport | Halim Perdanakusuma International Airport (WIHH) |
Arrival
| Time | 2026-04-28 10:39 |
|---|---|
| Airport | Sultan Mahmud Badaruddin II Airport (WIPP) |
| Time | Latitude | Longitude | Altitude | Speed | Heading |
|---|---|---|---|---|---|
| 2026-04-28 09:15 | -6.26649 | 106.88533 | 78 ft | 0 kts | 336° |
| 2026-04-28 09:34 | -6.26657 | 106.88536 | 91 ft | 4 kts | 336° |
| 2026-04-28 09:35 | -6.26675 | 106.88545 | 91 ft | 1 kts | 317° |
| 2026-04-28 09:35 | -6.26684 | 106.88562 | 93 ft | 4 kts | 279° |
| 2026-04-28 09:35 | -6.26685 | 106.88568 | 91 ft | 0 kts | 262° |
| 2026-04-28 09:35 | -6.26687 | 106.88562 | 94 ft | 1 kts | 250° |
| 2026-04-28 09:36 | -6.26691 | 106.88550 | 93 ft | 3 kts | 249° |
| 2026-04-28 09:36 | -6.26703 | 106.88523 | 91 ft | 5 kts | 243° |
| 2026-04-28 09:36 | -6.26721 | 106.88491 | 92 ft | 4 kts | 229° |
| 2026-04-28 09:36 | -6.26744 | 106.88482 | 91 ft | 4 kts | 184° |
| 2026-04-28 09:37 | -6.26777 | 106.88489 | 92 ft | 6 kts | 160° |
| 2026-04-28 09:37 | -6.26800 | 106.88498 | 90 ft | 2 kts | 156° |
| 2026-04-28 09:37 | -6.26811 | 106.88503 | 92 ft | 0 kts | 156° |
| 2026-04-28 09:38 | -6.26812 | 106.88503 | 90 ft | 0 kts | 156° |
| 2026-04-28 09:38 | -6.26839 | 106.88516 | 92 ft | 8 kts | 155° |
| 2026-04-28 09:38 | -6.26912 | 106.88520 | 91 ft | 14 kts | 205° |
| 2026-04-28 09:39 | -6.26976 | 106.88426 | 91 ft | 19 kts | 244° |
| 2026-04-28 09:39 | -6.27036 | 106.88297 | 90 ft | 21 kts | 244° |
| 2026-04-28 09:39 | -6.27099 | 106.88162 | 91 ft | 22 kts | 248° |
| 2026-04-28 09:39 | -6.27141 | 106.88025 | 91 ft | 19 kts | 265° |
| 2026-04-28 09:40 | -6.27168 | 106.87931 | 94 ft | 5 kts | 209° |
| 2026-04-28 09:40 | -6.27182 | 106.87933 | 92 ft | 2 kts | 144° |
| 2026-04-28 09:40 | -6.27188 | 106.87945 | 92 ft | 3 kts | 101° |
| 2026-04-28 09:40 | -6.27186 | 106.87963 | 92 ft | 3 kts | 75° |
| 2026-04-28 09:41 | -6.27181 | 106.87977 | 94 ft | 4 kts | 68° |
| 2026-04-28 09:41 | -6.27168 | 106.88008 | 95 ft | 6 kts | 68° |
| 2026-04-28 09:41 | -6.27151 | 106.88052 | 91 ft | 8 kts | 68° |
| 2026-04-28 09:41 | -6.27129 | 106.88107 | 93 ft | 9 kts | 68° |
| 2026-04-28 09:42 | -6.27119 | 106.88132 | 92 ft | 0 kts | 64° |
| 2026-04-28 09:42 | -6.27115 | 106.88139 | 93 ft | 11 kts | 64° |
| 2026-04-28 09:42 | -6.26959 | 106.88468 | 92 ft | 94 kts | 65° |
| 2026-04-28 09:43 | -6.26581 | 106.89290 | 103 ft | 161 kts | 65° |
| 2026-04-28 09:43 | -6.26060 | 106.90346 | 917 ft | 162 kts | 61° |
| 2026-04-28 09:43 | -6.25580 | 106.91332 | 1899 ft | 172 kts | 76° |
| 2026-04-28 09:43 | -6.25839 | 106.92608 | 2383 ft | 208 kts | 129° |
| 2026-04-28 09:44 | -6.26912 | 106.93692 | 3215 ft | 231 kts | 135° |
| 2026-04-28 09:44 | -6.28064 | 106.94926 | 4006 ft | 253 kts | 128° |
| 2026-04-28 09:44 | -6.29082 | 106.96461 | 4795 ft | 275 kts | 123° |
| 2026-04-28 09:44 | -6.30546 | 106.97777 | 5553 ft | 298 kts | 154° |
| 2026-04-28 09:45 | -6.32644 | 106.98139 | 6339 ft | 321 kts | 184° |
| 2026-04-28 09:45 | -6.34849 | 106.97523 | 7113 ft | 336 kts | 200° |
| 2026-04-28 09:45 | -6.36997 | 106.96577 | 7847 ft | 337 kts | 204° |
| 2026-04-28 09:45 | -6.39103 | 106.95615 | 8589 ft | 337 kts | 202° |
| 2026-04-28 09:46 | -6.41279 | 106.94740 | 9356 ft | 337 kts | 199° |
| 2026-04-28 09:46 | -6.43336 | 106.93630 | 10060 ft | 339 kts | 220° |
| 2026-04-28 09:46 | -6.44707 | 106.91718 | 10760 ft | 341 kts | 248° |
| 2026-04-28 09:46 | -6.45143 | 106.89391 | 11491 ft | 340 kts | 267° |
| 2026-04-28 09:47 | -6.45187 | 106.87016 | 12226 ft | 339 kts | 271° |
| 2026-04-28 09:47 | -6.45118 | 106.84653 | 12973 ft | 338 kts | 272° |
| 2026-04-28 09:47 | -6.44973 | 106.82302 | 13727 ft | 336 kts | 274° |
| 2026-04-28 09:47 | -6.44534 | 106.80012 | 14378 ft | 334 kts | 294° |
| 2026-04-28 09:48 | -6.43193 | 106.78146 | 15076 ft | 329 kts | 316° |
| 2026-04-28 09:48 | -6.41526 | 106.76592 | 15786 ft | 325 kts | 320° |
| 2026-04-28 09:48 | -6.39815 | 106.75130 | 16480 ft | 321 kts | 321° |
| 2026-04-28 09:48 | -6.38111 | 106.73711 | 17207 ft | 316 kts | 321° |
| 2026-04-28 09:49 | -6.36430 | 106.72325 | 17947 ft | 310 kts | 321° |
| 2026-04-28 09:49 | -6.34769 | 106.70982 | 18610 ft | 304 kts | 322° |
| 2026-04-28 09:49 | -6.33115 | 106.69687 | 19264 ft | 298 kts | 323° |
| 2026-04-28 09:49 | -6.31472 | 106.68451 | 19919 ft | 292 kts | 324° |
| 2026-04-28 09:50 | -6.29861 | 106.67261 | 20592 ft | 283 kts | 324° |
| 2026-04-28 09:50 | -6.28298 | 106.66108 | 21278 ft | 273 kts | 325° |
| 2026-04-28 09:50 | -6.26794 | 106.65005 | 21961 ft | 261 kts | 325° |
| 2026-04-28 09:50 | -6.25372 | 106.63956 | 22660 ft | 246 kts | 324° |
| 2026-04-28 09:51 | -6.24046 | 106.62973 | 23322 ft | 229 kts | 324° |
| 2026-04-28 09:51 | -6.22779 | 106.62029 | 23610 ft | 230 kts | 325° |
| 2026-04-28 09:51 | -6.21484 | 106.61062 | 23814 ft | 228 kts | 324° |
| 2026-04-28 09:51 | -6.20220 | 106.60118 | 24039 ft | 231 kts | 324° |
| 2026-04-28 09:52 | -6.18903 | 106.59135 | 24147 ft | 238 kts | 324° |
| 2026-04-28 09:52 | -6.17587 | 106.58148 | 24347 ft | 242 kts | 324° |
| 2026-04-28 09:52 | -6.16273 | 106.57166 | 24803 ft | 223 kts | 324° |
| 2026-04-28 09:52 | -6.15012 | 106.56222 | 24956 ft | 232 kts | 324° |
| 2026-04-28 09:53 | -6.13674 | 106.55224 | 24914 ft | 248 kts | 324° |
| 2026-04-28 09:53 | -6.12273 | 106.54177 | 25164 ft | 242 kts | 324° |
| 2026-04-28 09:53 | -6.10906 | 106.53148 | 25295 ft | 255 kts | 324° |
| 2026-04-28 09:53 | -6.09398 | 106.52007 | 24958 ft | 288 kts | 324° |
| 2026-04-28 09:54 | -6.07728 | 106.50749 | 24959 ft | 303 kts | 324° |
| 2026-04-28 09:54 | -6.06075 | 106.49509 | 25650 ft | 289 kts | 324° |
| 2026-04-28 09:54 | -6.04507 | 106.48327 | 26339 ft | 276 kts | 324° |
| 2026-04-28 09:54 | -6.02962 | 106.47155 | 26552 ft | 284 kts | 324° |
| 2026-04-28 09:55 | -6.01357 | 106.45953 | 26727 ft | 291 kts | 324° |
| 2026-04-28 09:55 | -5.99722 | 106.44729 | 26989 ft | 295 kts | 324° |
| 2026-04-28 09:55 | -5.98087 | 106.43489 | 27349 ft | 294 kts | 324° |
| 2026-04-28 09:55 | -5.96468 | 106.42250 | 27781 ft | 291 kts | 324° |
| 2026-04-28 09:56 | -5.94869 | 106.41019 | 28183 ft | 289 kts | 324° |
| 2026-04-28 09:56 | -5.93269 | 106.39785 | 28475 ft | 291 kts | 324° |
| 2026-04-28 09:56 | -5.91651 | 106.38537 | 28690 ft | 296 kts | 324° |
| 2026-04-28 09:56 | -5.90008 | 106.37272 | 28933 ft | 299 kts | 324° |
| 2026-04-28 09:57 | -5.88350 | 106.36006 | 29254 ft | 299 kts | 324° |
| 2026-04-28 09:57 | -5.86717 | 106.34758 | 29535 ft | 302 kts | 324° |
| 2026-04-28 09:57 | -5.83322 | 106.32128 | 29947 ft | 309 kts | 324° |
| 2026-04-28 09:58 | -5.81619 | 106.30819 | 30142 ft | 313 kts | 324° |
| 2026-04-28 09:58 | -5.79867 | 106.29476 | 30265 ft | 318 kts | 324° |
| 2026-04-28 09:58 | -5.78116 | 106.28134 | 30610 ft | 315 kts | 324° |
| 2026-04-28 09:58 | -5.76346 | 106.26848 | 30761 ft | 319 kts | 331° |
| 2026-04-28 09:59 | -5.74349 | 106.25751 | 30586 ft | 335 kts | 333° |
| 2026-04-28 09:59 | -5.72312 | 106.24518 | 30516 ft | 349 kts | 326° |
| 2026-04-28 09:59 | -5.70340 | 106.23029 | 30485 ft | 361 kts | 322° |
| 2026-04-28 09:59 | -5.68350 | 106.21427 | 30469 ft | 372 kts | 322° |
| 2026-04-28 10:00 | -5.66284 | 106.19806 | 30469 ft | 383 kts | 323° |
| 2026-04-28 10:00 | -5.64129 | 106.18177 | 30455 ft | 392 kts | 324° |
| 2026-04-28 10:00 | -5.59587 | 106.14899 | 30447 ft | 412 kts | 325° |
| 2026-04-28 10:01 | -5.54875 | 106.11416 | 30435 ft | 429 kts | 324° |
| 2026-04-28 10:01 | -5.50040 | 106.07769 | 30430 ft | 446 kts | 324° |
| 2026-04-28 10:02 | -5.44981 | 106.04004 | 30434 ft | 460 kts | 324° |
| 2026-04-28 10:02 | -5.39809 | 106.00078 | 30431 ft | 474 kts | 322° |
| 2026-04-28 10:03 | -5.34623 | 105.95865 | 30428 ft | 485 kts | 322° |
| 2026-04-28 10:03 | -5.29276 | 105.91627 | 30423 ft | 495 kts | 322° |
| 2026-04-28 10:04 | -5.23844 | 105.87302 | 30416 ft | 502 kts | 322° |
| 2026-04-28 10:04 | -5.18324 | 105.82945 | 30416 ft | 507 kts | 323° |
| 2026-04-28 10:05 | -5.12604 | 105.78748 | 30423 ft | 511 kts | 326° |
| 2026-04-28 10:05 | -5.06715 | 105.74720 | 30414 ft | 513 kts | 326° |
| 2026-04-28 10:06 | -5.00914 | 105.70565 | 30411 ft | 512 kts | 325° |
| 2026-04-28 10:06 | -4.95153 | 105.66461 | 30407 ft | 499 kts | 326° |
| 2026-04-28 10:07 | -4.89631 | 105.62536 | 30395 ft | 482 kts | 326° |
| 2026-04-28 10:07 | -4.84239 | 105.58703 | 30391 ft | 469 kts | 326° |
| 2026-04-28 10:08 | -4.78979 | 105.54966 | 30395 ft | 458 kts | 326° |
| 2026-04-28 10:08 | -4.73827 | 105.51306 | 30400 ft | 449 kts | 326° |
| 2026-04-28 10:09 | -4.68774 | 105.47716 | 30393 ft | 441 kts | 326° |
| 2026-04-28 10:09 | -4.63811 | 105.44191 | 30392 ft | 434 kts | 326° |
| 2026-04-28 10:10 | -4.58928 | 105.40725 | 30396 ft | 427 kts | 326° |
| 2026-04-28 10:10 | -4.54117 | 105.37310 | 30399 ft | 421 kts | 326° |
| 2026-04-28 10:11 | -4.49374 | 105.33942 | 30391 ft | 415 kts | 326° |
| 2026-04-28 10:11 | -4.44691 | 105.30619 | 30392 ft | 410 kts | 326° |
| 2026-04-28 10:12 | -4.40063 | 105.27334 | 30396 ft | 406 kts | 326° |
| 2026-04-28 10:12 | -4.35478 | 105.24082 | 30394 ft | 402 kts | 326° |
| 2026-04-28 10:13 | -4.30936 | 105.20861 | 30395 ft | 398 kts | 326° |
| 2026-04-28 10:13 | -4.26473 | 105.17681 | 30393 ft | 395 kts | 326° |
| 2026-04-28 10:14 | -4.21992 | 105.14495 | 30177 ft | 398 kts | 327° |
| 2026-04-28 10:14 | -4.17464 | 105.11305 | 30164 ft | 395 kts | 326° |
| 2026-04-28 10:15 | -4.13008 | 105.08120 | 30184 ft | 392 kts | 326° |
| 2026-04-28 10:15 | -4.10676 | 105.06749 | 30178 ft | 387 kts | 341° |
| 2026-04-28 10:15 | -4.08112 | 105.05994 | 30195 ft | 383 kts | 348° |
| 2026-04-28 10:16 | -4.05479 | 105.05460 | 29877 ft | 391 kts | 353° |
| 2026-04-28 10:16 | -4.02732 | 105.05182 | 29376 ft | 402 kts | 358° |
| 2026-04-28 10:16 | -3.99908 | 105.05051 | 28873 ft | 412 kts | 359° |
| 2026-04-28 10:16 | -3.97005 | 105.04947 | 28382 ft | 423 kts | 359° |
| 2026-04-28 10:17 | -3.94058 | 105.04560 | 27499 ft | 429 kts | 346° |
| 2026-04-28 10:17 | -3.91286 | 105.03534 | 26536 ft | 422 kts | 336° |
| 2026-04-28 10:17 | -3.88677 | 105.02235 | 25609 ft | 416 kts | 333° |
| 2026-04-28 10:17 | -3.86146 | 105.00867 | 24734 ft | 410 kts | 332° |
| 2026-04-28 10:18 | -3.83668 | 104.99477 | 23860 ft | 406 kts | 330° |
| 2026-04-28 10:18 | -3.81233 | 104.98071 | 22941 ft | 403 kts | 330° |
| 2026-04-28 10:18 | -3.78830 | 104.96630 | 21950 ft | 402 kts | 329° |
| 2026-04-28 10:18 | -3.76456 | 104.95170 | 20993 ft | 398 kts | 329° |
| 2026-04-28 10:19 | -3.74109 | 104.93736 | 20065 ft | 393 kts | 329° |
| 2026-04-28 10:19 | -3.71782 | 104.92328 | 19153 ft | 389 kts | 329° |
| 2026-04-28 10:19 | -3.69464 | 104.90933 | 18287 ft | 387 kts | 329° |
| 2026-04-28 10:19 | -3.67161 | 104.89540 | 17338 ft | 387 kts | 330° |
| 2026-04-28 10:20 | -3.64879 | 104.88160 | 16506 ft | 378 kts | 330° |
| 2026-04-28 10:20 | -3.62658 | 104.86813 | 15787 ft | 368 kts | 330° |
| 2026-04-28 10:20 | -3.60492 | 104.85500 | 15081 ft | 360 kts | 330° |
| 2026-04-28 10:20 | -3.59082 | 104.84647 | 14636 ft | 355 kts | 330° |
| 2026-04-28 10:21 | -3.56317 | 104.82973 | 13720 ft | 347 kts | 330° |
| 2026-04-28 10:21 | -3.54273 | 104.81732 | 12973 ft | 341 kts | 329° |
| 2026-04-28 10:21 | -3.52280 | 104.80526 | 12669 ft | 325 kts | 329° |
| 2026-04-28 10:21 | -3.50400 | 104.79389 | 12659 ft | 307 kts | 330° |
| 2026-04-28 10:22 | -3.48574 | 104.78282 | 12194 ft | 309 kts | 330° |
| 2026-04-28 10:22 | -3.46722 | 104.77160 | 11653 ft | 313 kts | 329° |
| 2026-04-28 10:22 | -3.44845 | 104.76024 | 11108 ft | 316 kts | 329° |
| 2026-04-28 10:22 | -3.43607 | 104.75273 | 10744 ft | 312 kts | 329° |
| 2026-04-28 10:23 | -3.41768 | 104.74160 | 10206 ft | 306 kts | 329° |
| 2026-04-28 10:23 | -3.39958 | 104.73063 | 9681 ft | 301 kts | 329° |
| 2026-04-28 10:23 | -3.38179 | 104.71986 | 9100 ft | 297 kts | 329° |
| 2026-04-28 10:23 | -3.36424 | 104.70924 | 8529 ft | 293 kts | 330° |
| 2026-04-28 10:24 | -3.34695 | 104.69878 | 7967 ft | 288 kts | 330° |
| 2026-04-28 10:24 | -3.32991 | 104.68848 | 7407 ft | 284 kts | 330° |
| 2026-04-28 10:24 | -3.31313 | 104.67830 | 6869 ft | 280 kts | 330° |
| 2026-04-28 10:24 | -3.29657 | 104.66828 | 6338 ft | 276 kts | 330° |
| 2026-04-28 10:25 | -3.28025 | 104.65842 | 5793 ft | 272 kts | 330° |
| 2026-04-28 10:25 | -3.26419 | 104.64867 | 5242 ft | 268 kts | 330° |
| 2026-04-28 10:25 | -3.24834 | 104.63908 | 4702 ft | 265 kts | 330° |
| 2026-04-28 10:25 | -3.23273 | 104.62949 | 4141 ft | 262 kts | 329° |
| 2026-04-28 10:26 | -3.21727 | 104.62004 | 3591 ft | 259 kts | 329° |
| 2026-04-28 10:26 | -3.20224 | 104.61095 | 3399 ft | 241 kts | 330° |
| 2026-04-28 10:26 | -3.18862 | 104.60275 | 3416 ft | 217 kts | 330° |
| 2026-04-28 10:26 | -3.17631 | 104.59531 | 3421 ft | 197 kts | 329° |
| 2026-04-28 10:27 | -3.16531 | 104.58864 | 3405 ft | 178 kts | 329° |
| 2026-04-28 10:27 | -3.15506 | 104.58243 | 3412 ft | 175 kts | 330° |
| 2026-04-28 10:27 | -3.14415 | 104.57585 | 3456 ft | 194 kts | 329° |
| 2026-04-28 10:27 | -3.13147 | 104.56818 | 3521 ft | 230 kts | 330° |
| 2026-04-28 10:28 | -3.11720 | 104.55949 | 3570 ft | 252 kts | 329° |
| 2026-04-28 10:28 | -3.10173 | 104.55015 | 3863 ft | 269 kts | 330° |
| 2026-04-28 10:28 | -3.08447 | 104.53982 | 4166 ft | 307 kts | 330° |
| 2026-04-28 10:29 | -3.04638 | 104.51684 | 4785 ft | 317 kts | 330° |
| 2026-04-28 10:29 | -3.02768 | 104.50554 | 4911 ft | 312 kts | 330° |
| 2026-04-28 10:29 | -3.00843 | 104.49392 | 4959 ft | 333 kts | 330° |
| 2026-04-28 10:29 | -2.98891 | 104.48208 | 5082 ft | 321 kts | 329° |
| 2026-04-28 10:30 | -2.97008 | 104.47067 | 5137 ft | 312 kts | 330° |
| 2026-04-28 10:30 | -2.95170 | 104.45956 | 5158 ft | 306 kts | 330° |
| 2026-04-28 10:30 | -2.93361 | 104.44866 | 5164 ft | 302 kts | 330° |
| 2026-04-28 10:30 | -2.91610 | 104.43810 | 5163 ft | 285 kts | 330° |
| 2026-04-28 10:31 | -2.89889 | 104.42967 | 5147 ft | 269 kts | 349° |
| 2026-04-28 10:31 | -2.88082 | 104.42997 | 4979 ft | 260 kts | 12° |
| 2026-04-28 10:31 | -2.86358 | 104.43454 | 4548 ft | 253 kts | 21° |
| 2026-04-28 10:31 | -2.84739 | 104.44084 | 4084 ft | 247 kts | 24° |
| 2026-04-28 10:32 | -2.83180 | 104.44759 | 3647 ft | 242 kts | 25° |
| 2026-04-28 10:32 | -2.81668 | 104.45455 | 3293 ft | 235 kts | 26° |
| 2026-04-28 10:32 | -2.80246 | 104.46159 | 3114 ft | 221 kts | 28° |
| 2026-04-28 10:32 | -2.79076 | 104.47038 | 3013 ft | 203 kts | 54° |
| 2026-04-28 10:33 | -2.78563 | 104.48270 | 2983 ft | 184 kts | 78° |
| 2026-04-28 10:33 | -2.78442 | 104.49474 | 2945 ft | 172 kts | 84° |
| 2026-04-28 10:33 | -2.78281 | 104.50617 | 2924 ft | 159 kts | 81° |
| 2026-04-28 10:33 | -2.78158 | 104.51688 | 2605 ft | 165 kts | 102° |
| 2026-04-28 10:34 | -2.78821 | 104.52701 | 2062 ft | 187 kts | 145° |
| 2026-04-28 10:34 | -2.80050 | 104.53306 | 1533 ft | 207 kts | 159° |
| 2026-04-28 10:34 | -2.81394 | 104.53782 | 1364 ft | 197 kts | 161° |
| 2026-04-28 10:34 | -2.82644 | 104.54176 | 1364 ft | 180 kts | 161° |
| 2026-04-28 10:35 | -2.83704 | 104.54722 | 1280 ft | 166 kts | 141° |
| 2026-04-28 10:35 | -2.84355 | 104.55637 | 1060 ft | 166 kts | 108° |
| 2026-04-28 10:35 | -2.84703 | 104.56775 | 1133 ft | 173 kts | 105° |
| 2026-04-28 10:35 | -2.85008 | 104.57862 | 1380 ft | 161 kts | 105° |
| 2026-04-28 10:36 | -2.85283 | 104.58889 | 1821 ft | 146 kts | 107° |
| 2026-04-28 10:36 | -2.85646 | 104.59818 | 2032 ft | 139 kts | 112° |
| 2026-04-28 10:36 | -2.86011 | 104.60709 | 2223 ft | 143 kts | 112° |
| 2026-04-28 10:36 | -2.86369 | 104.61580 | 2249 ft | 127 kts | 111° |
| 2026-04-28 10:37 | -2.86661 | 104.62384 | 1921 ft | 122 kts | 109° |
| 2026-04-28 10:37 | -2.86964 | 104.63194 | 1525 ft | 122 kts | 112° |
| 2026-04-28 10:37 | -2.87301 | 104.63951 | 1066 ft | 118 kts | 111° |
| 2026-04-28 10:37 | -2.87612 | 104.64721 | 796 ft | 119 kts | 110° |
| 2026-04-28 10:38 | -2.87911 | 104.65500 | 621 ft | 119 kts | 112° |
| 2026-04-28 10:38 | -2.88237 | 104.66289 | 528 ft | 130 kts | 113° |
| 2026-04-28 10:38 | -2.88580 | 104.67076 | 393 ft | 119 kts | 114° |
| 2026-04-28 10:38 | -2.88917 | 104.67862 | 215 ft | 128 kts | 113° |
| 2026-04-28 10:39 | -2.89246 | 104.68630 | 33 ft | 123 kts | 113° |
| 2026-04-28 10:39 | -2.89534 | 104.69313 | 13 ft | 81 kts | 113° |
| 2026-04-28 10:39 | -2.89717 | 104.69727 | 16 ft | 61 kts | 115° |
| 2026-04-28 10:39 | -2.89794 | 104.69945 | 19 ft | 15 kts | 79° |
| 2026-04-28 10:40 | -2.89708 | 104.70012 | 19 ft | 17 kts | 36° |
| 2026-04-28 10:40 | -2.89693 | 104.70084 | 21 ft | 15 kts | 106° |
| 2026-04-28 10:40 | -2.89724 | 104.70182 | 22 ft | 12 kts | 86° |
| 2026-04-28 10:40 | -2.89677 | 104.70233 | 24 ft | 9 kts | 20° |
| 2026-04-28 10:41 | -2.89606 | 104.70248 | 24 ft | 11 kts | 18° |
| 2026-04-28 10:41 | -2.89564 | 104.70264 | 26 ft | 6 kts | 22° |
| 2026-04-28 10:41 | -2.89550 | 104.70269 | 24 ft | 1 kts | 21° |
| 2026-04-28 10:41 | -2.89546 | 104.70271 | 24 ft | 0 kts | 22° |